Terminal Aerodrome Forecast
Issued by NWS

Home | Current Version | Previous Version | Text Only | Print | Product List | Glossary On
Versions: 1 2 3 4 5 6 7 8 9 10 11 12 13
000
FTUS46 KSTO 201736
TAFSMF
TAF
KSMF 201736Z 2018/2118 14007KT P6SM OVC050
      TEMPO 2020/2024 5SM -SHRA OVC035
     FM210300 34004KT 6SM BR OVC050=

USA.gov is the U.S. government's official web portal to all federal, state and local government web resources and services.